sensor_id;sensor_type;location;lat;lon;timestamp;pressure;altitude;pressure_sealevel;temperature;humidity
49949;BME280;35840;45.982;8.890;2022-08-19T00:01:33;97851.50;;;18.85;91.00
49949;BME280;35840;45.982;8.890;2022-08-19T00:04:07;97842.25;;;18.90;90.21
49949;BME280;35840;45.982;8.890;2022-08-19T00:06:36;97830.56;;;18.95;90.01
49949;BME280;35840;45.982;8.890;2022-08-19T00:09:05;97825.38;;;19.03;89.63
49949;BME280;35840;45.982;8.890;2022-08-19T00:11:33;97808.50;;;18.81;89.65
49949;BME280;35840;45.982;8.890;2022-08-19T00:14:03;97807.69;;;18.80;89.19
49949;BME280;35840;45.982;8.890;2022-08-19T00:16:30;97795.13;;;18.67;89.17
49949;BME280;35840;45.982;8.890;2022-08-19T00:18:57;97809.47;;;18.71;88.73
49949;BME280;35840;45.982;8.890;2022-08-19T00:21:24;97803.88;;;18.58;88.71
49949;BME280;35840;45.982;8.890;2022-08-19T00:23:53;97821.63;;;18.63;88.63
49949;BME280;35840;45.982;8.890;2022-08-19T00:26:20;97828.63;;;18.62;88.97
49949;BME280;35840;45.982;8.890;2022-08-19T00:28:47;97832.03;;;18.63;88.87
49949;BME280;35840;45.982;8.890;2022-08-19T00:31:13;97828.06;;;18.42;89.14
49949;BME280;35840;45.982;8.890;2022-08-19T00:33:40;97839.13;;;18.44;89.34
49949;BME280;35840;45.982;8.890;2022-08-19T00:36:08;97836.03;;;18.40;89.90
49949;BME280;35840;45.982;8.890;2022-08-19T00:38:37;97825.19;;;18.19;91.38
49949;BME280;35840;45.982;8.890;2022-08-19T00:41:06;97826.81;;;18.20;91.60
49949;BME280;35840;45.982;8.890;2022-08-19T00:43:32;97828.13;;;18.24;91.51
49949;BME280;35840;45.982;8.890;2022-08-19T00:45:59;97827.00;;;18.27;91.73
49949;BME280;35840;45.982;8.890;2022-08-19T00:48:27;97819.91;;;18.37;91.10
49949;BME280;35840;45.982;8.890;2022-08-19T00:50:54;97808.53;;;18.38;90.50
49949;BME280;35840;45.982;8.890;2022-08-19T00:53:27;97818.97;;;18.46;89.51
49949;BME280;35840;45.982;8.890;2022-08-19T00:55:57;97814.41;;;18.48;89.05
49949;BME280;35840;45.982;8.890;2022-08-19T00:58:29;97811.00;;;18.48;89.28
49949;BME280;35840;45.982;8.890;2022-08-19T01:00:56;97801.25;;;18.50;88.51
49949;BME280;35840;45.982;8.890;2022-08-19T01:03:23;97808.09;;;18.51;88.12
49949;BME280;35840;45.982;8.890;2022-08-19T01:05:51;97812.41;;;18.34;88.61
49949;BME280;35840;45.982;8.890;2022-08-19T01:08:21;97838.94;;;18.37;88.22
49949;BME280;35840;45.982;8.890;2022-08-19T01:10:52;97838.94;;;18.37;88.83
49949;BME280;35840;45.982;8.890;2022-08-19T01:13:24;97832.63;;;18.40;88.69
49949;BME280;35840;45.982;8.890;2022-08-19T01:15:56;97826.09;;;18.44;88.15
49949;BME280;35840;45.982;8.890;2022-08-19T01:18:25;97818.03;;;18.21;88.65
49949;BME280;35840;45.982;8.890;2022-08-19T01:20:55;97807.59;;;18.13;89.92
49949;BME280;35840;45.982;8.890;2022-08-19T01:23:23;97812.19;;;18.27;89.40
49949;BME280;35840;45.982;8.890;2022-08-19T01:26:21;97801.03;;;18.00;90.00
49949;BME280;35840;45.982;8.890;2022-08-19T01:28:51;97807.25;;;18.08;89.97
49949;BME280;35840;45.982;8.890;2022-08-19T01:31:21;97802.22;;;18.14;89.44
49949;BME280;35840;45.982;8.890;2022-08-19T01:33:55;97799.81;;;18.21;90.07
49949;BME280;35840;45.982;8.890;2022-08-19T01:36:35;97794.47;;;18.22;89.45
49949;BME280;35840;45.982;8.890;2022-08-19T01:39:06;97793.19;;;18.27;88.64
49949;BME280;35840;45.982;8.890;2022-08-19T01:41:34;97783.56;;;18.27;87.86
49949;BME280;35840;45.982;8.890;2022-08-19T01:44:01;97780.34;;;18.25;87.92
49949;BME280;35840;45.982;8.890;2022-08-19T01:46:45;97782.66;;;18.36;87.45
49949;BME280;35840;45.982;8.890;2022-08-19T01:49:13;97784.63;;;18.34;87.06
49949;BME280;35840;45.982;8.890;2022-08-19T01:51:40;97786.38;;;18.34;86.52
49949;BME280;35840;45.982;8.890;2022-08-19T01:54:08;97777.84;;;18.15;87.40
49949;BME280;35840;45.982;8.890;2022-08-19T01:56:35;97775.19;;;18.07;87.24
49949;BME280;35840;45.982;8.890;2022-08-19T01:59:06;97771.63;;;18.08;88.38
49949;BME280;35840;45.982;8.890;2022-08-19T02:01:35;97763.06;;;17.89;88.59
49949;BME280;35840;45.982;8.890;2022-08-19T02:04:02;97769.19;;;18.06;87.97
49949;BME280;35840;45.982;8.890;2022-08-19T02:06:29;97767.00;;;17.94;88.70
49949;BME280;35840;45.982;8.890;2022-08-19T02:08:56;97769.00;;;17.82;88.58
49949;BME280;35840;45.982;8.890;2022-08-19T02:11:27;97774.25;;;17.90;88.67
49949;BME280;35840;45.982;8.890;2022-08-19T02:13:55;97784.38;;;17.93;88.74
49949;BME280;35840;45.982;8.890;2022-08-19T02:16:22;97784.09;;;17.96;89.01
49949;BME280;35840;45.982;8.890;2022-08-19T02:18:49;97770.94;;;17.98;88.20
49949;BME280;35840;45.982;8.890;2022-08-19T02:21:18;97772.41;;;18.00;88.01
49949;BME280;35840;45.982;8.890;2022-08-19T02:23:46;97776.44;;;17.95;88.16
49949;BME280;35840;45.982;8.890;2022-08-19T02:26:13;97773.38;;;17.99;87.74
49949;BME280;35840;45.982;8.890;2022-08-19T02:28:41;97770.09;;;17.71;88.60
49949;BME280;35840;45.982;8.890;2022-08-19T02:31:14;97772.22;;;17.76;88.23
49949;BME280;35840;45.982;8.890;2022-08-19T02:33:41;97775.50;;;17.78;88.58
49949;BME280;35840;45.982;8.890;2022-08-19T02:36:10;97761.50;;;17.79;88.27
49949;BME280;35840;45.982;8.890;2022-08-19T02:38:37;97768.94;;;17.92;87.82
49949;BME280;35840;45.982;8.890;2022-08-19T02:41:11;97769.28;;;17.97;87.36
49949;BME280;35840;45.982;8.890;2022-08-19T02:43:38;97765.06;;;17.96;86.29
49949;BME280;35840;45.982;8.890;2022-08-19T02:46:31;97748.63;;;17.69;87.62
49949;BME280;35840;45.982;8.890;2022-08-19T02:49:03;97753.16;;;17.67;87.21
49949;BME280;35840;45.982;8.890;2022-08-19T02:51:34;97753.16;;;17.67;87.60
49949;BME280;35840;45.982;8.890;2022-08-19T02:54:02;97755.16;;;17.73;87.86
49949;BME280;35840;45.982;8.890;2022-08-19T02:56:30;97749.63;;;17.76;86.58
49949;BME280;35840;45.982;8.890;2022-08-19T02:58:57;97736.63;;;17.68;86.31
49949;BME280;35840;45.982;8.890;2022-08-19T03:01:28;97736.41;;;17.61;86.79
49949;BME280;35840;45.982;8.890;2022-08-19T03:03:58;97731.13;;;17.53;86.88
49949;BME280;35840;45.982;8.890;2022-08-19T03:06:26;97721.44;;;17.55;87.68
49949;BME280;35840;45.982;8.890;2022-08-19T03:08:53;97725.78;;;17.28;88.40
49949;BME280;35840;45.982;8.890;2022-08-19T03:11:31;97723.75;;;17.40;88.11
49949;BME280;35840;45.982;8.890;2022-08-19T03:13:59;97718.31;;;17.51;87.43
49949;BME280;35840;45.982;8.890;2022-08-19T03:16:28;97737.31;;;17.52;88.00
49949;BME280;35840;45.982;8.890;2022-08-19T03:19:00;97730.03;;;17.55;87.02
49949;BME280;35840;45.982;8.890;2022-08-19T03:21:30;97725.03;;;17.62;87.43
49949;BME280;35840;45.982;8.890;2022-08-19T03:23:59;97717.44;;;17.43;87.39
49949;BME280;35840;45.982;8.890;2022-08-19T03:26:27;97722.28;;;17.64;86.54
49949;BME280;35840;45.982;8.890;2022-08-19T03:28:54;97730.69;;;17.31;86.99
49949;BME280;35840;45.982;8.890;2022-08-19T03:31:25;97723.06;;;17.12;88.23
49949;BME280;35840;45.982;8.890;2022-08-19T03:34:20;97726.00;;;16.81;90.28
49949;BME280;35840;45.982;8.890;2022-08-19T03:36:47;97733.38;;;17.03;89.20
49949;BME280;35840;45.982;8.890;2022-08-19T03:39:15;97732.03;;;16.99;89.26
49949;BME280;35840;45.982;8.890;2022-08-19T03:41:44;97735.38;;;17.10;88.41
49949;BME280;35840;45.982;8.890;2022-08-19T03:44:15;97739.59;;;17.11;89.19
49949;BME280;35840;45.982;8.890;2022-08-19T03:46:47;97740.72;;;17.08;88.64
49949;BME280;35840;45.982;8.890;2022-08-19T03:49:14;97737.44;;;17.06;89.02
49949;BME280;35840;45.982;8.890;2022-08-19T03:51:45;97741.38;;;17.10;89.14
49949;BME280;35840;45.982;8.890;2022-08-19T03:54:14;97741.22;;;17.12;88.36
49949;BME280;35840;45.982;8.890;2022-08-19T03:56:44;97746.84;;;17.25;88.51
49949;BME280;35840;45.982;8.890;2022-08-19T03:59:15;97754.50;;;17.27;87.85
49949;BME280;35840;45.982;8.890;2022-08-19T04:01:43;97758.56;;;17.29;88.16
49949;BME280;35840;45.982;8.890;2022-08-19T04:04:10;97761.25;;;17.37;87.36
49949;BME280;35840;45.982;8.890;2022-08-19T04:06:38;97766.50;;;17.46;86.15
49949;BME280;35840;45.982;8.890;2022-08-19T04:09:08;97773.03;;;17.50;85.94
49949;BME280;35840;45.982;8.890;2022-08-19T04:11:45;97777.84;;;17.45;86.16
49949;BME280;35840;45.982;8.890;2022-08-19T04:14:16;97778.53;;;17.47;86.20
49949;BME280;35840;45.982;8.890;2022-08-19T04:16:45;97788.25;;;17.45;86.01
49949;BME280;35840;45.982;8.890;2022-08-19T04:19:13;97792.50;;;17.46;86.64
49949;BME280;35840;45.982;8.890;2022-08-19T04:21:44;97798.66;;;17.45;86.19
49949;BME280;35840;45.982;8.890;2022-08-19T04:24:12;97802.59;;;17.49;85.69
49949;BME280;35840;45.982;8.890;2022-08-19T04:26:39;97797.44;;;17.57;84.85
49949;BME280;35840;45.982;8.890;2022-08-19T04:29:09;97796.44;;;16.96;87.14
49949;BME280;35840;45.982;8.890;2022-08-19T04:31:39;97802.00;;;17.01;86.74
49949;BME280;35840;45.982;8.890;2022-08-19T04:34:08;97810.38;;;16.95;88.13
49949;BME280;35840;45.982;8.890;2022-08-19T04:36:39;97816.31;;;17.05;87.38
49949;BME280;35840;45.982;8.890;2022-08-19T04:39:17;97814.25;;;17.09;87.63
49949;BME280;35840;45.982;8.890;2022-08-19T04:41:45;97826.50;;;17.16;87.53
49949;BME280;35840;45.982;8.890;2022-08-19T04:44:32;97824.94;;;17.24;87.02
49949;BME280;35840;45.982;8.890;2022-08-19T04:47:01;97825.69;;;17.34;86.11
49949;BME280;35840;45.982;8.890;2022-08-19T04:49:37;97823.59;;;17.37;86.41
49949;BME280;35840;45.982;8.890;2022-08-19T04:52:03;97817.13;;;17.24;86.23
49949;BME280;35840;45.982;8.890;2022-08-19T04:54:30;97819.75;;;17.24;86.00
49949;BME280;35840;45.982;8.890;2022-08-19T04:57:05;97815.81;;;17.19;86.75
49949;BME280;35840;45.982;8.890;2022-08-19T04:59:34;97817.91;;;17.16;87.83
49949;BME280;35840;45.982;8.890;2022-08-19T05:02:01;97820.56;;;17.24;87.62
49949;BME280;35840;45.982;8.890;2022-08-19T05:04:27;97819.00;;;17.31;86.64
49949;BME280;35840;45.982;8.890;2022-08-19T05:06:58;97823.53;;;17.11;87.59
49949;BME280;35840;45.982;8.890;2022-08-19T05:09:27;97819.00;;;17.13;88.23
49949;BME280;35840;45.982;8.890;2022-08-19T05:12:14;97825.84;;;17.14;89.70
49949;BME280;35840;45.982;8.890;2022-08-19T05:14:42;97820.50;;;17.16;89.97
49949;BME280;35840;45.982;8.890;2022-08-19T05:17:08;97818.91;;;17.05;89.05
49949;BME280;35840;45.982;8.890;2022-08-19T05:19:55;97816.72;;;17.10;89.36
49949;BME280;35840;45.982;8.890;2022-08-19T05:22:42;97822.66;;;17.02;88.23
49949;BME280;35840;45.982;8.890;2022-08-19T05:25:13;97818.75;;;17.07;89.89
49949;BME280;35840;45.982;8.890;2022-08-19T05:27:41;97827.47;;;17.15;89.12
49949;BME280;35840;45.982;8.890;2022-08-19T05:30:09;97819.59;;;17.25;89.00
49949;BME280;35840;45.982;8.890;2022-08-19T05:32:36;97810.91;;;17.34;88.31
49949;BME280;35840;45.982;8.890;2022-08-19T05:35:04;97811.56;;;17.36;88.38
49949;BME280;35840;45.982;8.890;2022-08-19T05:37:31;97816.91;;;17.35;88.53
49949;BME280;35840;45.982;8.890;2022-08-19T05:39:58;97820.44;;;17.44;88.05
49949;BME280;35840;45.982;8.890;2022-08-19T05:42:26;97820.44;;;17.44;88.89
49949;BME280;35840;45.982;8.890;2022-08-19T05:44:53;97827.91;;;17.47;88.69
49949;BME280;35840;45.982;8.890;2022-08-19T05:47:20;97824.84;;;17.51;89.05
49949;BME280;35840;45.982;8.890;2022-08-19T05:49:47;97826.66;;;17.51;87.90
49949;BME280;35840;45.982;8.890;2022-08-19T05:52:16;97829.25;;;17.51;87.08
49949;BME280;35840;45.982;8.890;2022-08-19T05:54:45;97830.50;;;17.47;86.98
49949;BME280;35840;45.982;8.890;2022-08-19T05:57:18;97835.78;;;17.55;88.08
49949;BME280;35840;45.982;8.890;2022-08-19T05:59:45;97843.34;;;17.48;89.10
49949;BME280;35840;45.982;8.890;2022-08-19T06:02:25;97826.72;;;17.41;89.15
49949;BME280;35840;45.982;8.890;2022-08-19T06:04:51;97831.38;;;17.19;90.41
49949;BME280;35840;45.982;8.890;2022-08-19T06:07:19;97826.44;;;17.08;92.01
49949;BME280;35840;45.982;8.890;2022-08-19T06:09:46;97828.44;;;17.14;92.02
49949;BME280;35840;45.982;8.890;2022-08-19T06:12:30;97839.25;;;17.28;89.33
49949;BME280;35840;45.982;8.890;2022-08-19T06:15:05;97852.56;;;17.43;89.60
49949;BME280;35840;45.982;8.890;2022-08-19T06:17:32;97866.28;;;17.53;89.53
49949;BME280;35840;45.982;8.890;2022-08-19T06:20:08;97868.28;;;17.59;89.49
49949;BME280;35840;45.982;8.890;2022-08-19T06:22:41;97877.72;;;17.60;90.62
49949;BME280;35840;45.982;8.890;2022-08-19T06:25:08;97886.34;;;17.61;90.27
49949;BME280;35840;45.982;8.890;2022-08-19T06:27:36;97894.34;;;17.67;90.42
49949;BME280;35840;45.982;8.890;2022-08-19T06:30:14;97892.63;;;17.76;88.87
49949;BME280;35840;45.982;8.890;2022-08-19T06:32:41;97900.50;;;17.84;88.27
49949;BME280;35840;45.982;8.890;2022-08-19T06:35:08;97910.22;;;17.92;88.26
49949;BME280;35840;45.982;8.890;2022-08-19T06:37:36;97901.13;;;17.96;87.77
49949;BME280;35840;45.982;8.890;2022-08-19T06:40:07;97909.03;;;18.13;87.50
49949;BME280;35840;45.982;8.890;2022-08-19T06:42:35;97909.09;;;18.21;88.00
49949;BME280;35840;45.982;8.890;2022-08-19T06:45:02;97901.16;;;18.22;87.69
49949;BME280;35840;45.982;8.890;2022-08-19T06:47:34;97906.19;;;18.24;86.91
49949;BME280;35840;45.982;8.890;2022-08-19T06:50:02;97907.03;;;18.24;87.54
49949;BME280;35840;45.982;8.890;2022-08-19T06:52:32;97894.00;;;18.24;87.12
49949;BME280;35840;45.982;8.890;2022-08-19T06:55:03;97903.84;;;18.39;87.12
49949;BME280;35840;45.982;8.890;2022-08-19T06:57:32;97904.25;;;18.52;86.50
49949;BME280;35840;45.982;8.890;2022-08-19T06:59:59;97902.81;;;18.58;86.27
49949;BME280;35840;45.982;8.890;2022-08-19T07:02:26;97902.84;;;18.66;86.26
49949;BME280;35840;45.982;8.890;2022-08-19T07:04:53;97905.16;;;18.69;87.10
49949;BME280;35840;45.982;8.890;2022-08-19T07:07:20;97908.91;;;18.75;86.85
49949;BME280;35840;45.982;8.890;2022-08-19T07:09:48;97911.03;;;18.80;87.88
49949;BME280;35840;45.982;8.890;2022-08-19T07:12:24;97911.34;;;18.76;88.03
49949;BME280;35840;45.982;8.890;2022-08-19T07:14:51;97910.38;;;18.78;88.04
49949;BME280;35840;45.982;8.890;2022-08-19T07:17:20;97899.50;;;18.82;88.06
49949;BME280;35840;45.982;8.890;2022-08-19T07:19:47;97905.34;;;18.76;87.53
49949;BME280;35840;45.982;8.890;2022-08-19T07:22:14;97903.53;;;18.76;87.11
49949;BME280;35840;45.982;8.890;2022-08-19T07:24:42;97900.94;;;18.76;87.43
49949;BME280;35840;45.982;8.890;2022-08-19T07:27:17;97892.47;;;18.74;87.67
49949;BME280;35840;45.982;8.890;2022-08-19T07:29:53;97901.28;;;18.82;87.96
49949;BME280;35840;45.982;8.890;2022-08-19T07:32:24;97900.00;;;18.86;88.07
49949;BME280;35840;45.982;8.890;2022-08-19T07:34:54;97903.97;;;18.90;88.56
49949;BME280;35840;45.982;8.890;2022-08-19T07:37:23;97904.97;;;18.97;89.79
49949;BME280;35840;45.982;8.890;2022-08-19T07:39:51;97909.06;;;19.00;88.92
49949;BME280;35840;45.982;8.890;2022-08-19T07:42:18;97905.47;;;19.01;88.56
49949;BME280;35840;45.982;8.890;2022-08-19T07:44:47;97913.78;;;19.04;88.12
49949;BME280;35840;45.982;8.890;2022-08-19T07:47:17;97910.69;;;19.09;88.28
49949;BME280;35840;45.982;8.890;2022-08-19T07:50:07;97906.31;;;19.09;86.87
49949;BME280;35840;45.982;8.890;2022-08-19T07:52:34;97904.34;;;19.12;86.22
49949;BME280;35840;45.982;8.890;2022-08-19T07:55:03;97907.31;;;19.17;88.23
49949;BME280;35840;45.982;8.890;2022-08-19T07:57:30;97892.84;;;19.22;88.18
49949;BME280;35840;45.982;8.890;2022-08-19T07:59:57;97907.31;;;19.25;88.59
49949;BME280;35840;45.982;8.890;2022-08-19T08:02:24;97908.00;;;19.27;87.77
49949;BME280;35840;45.982;8.890;2022-08-19T08:04:51;97921.66;;;19.29;87.02
49949;BME280;35840;45.982;8.890;2022-08-19T08:07:36;97927.22;;;19.34;86.68
49949;BME280;35840;45.982;8.890;2022-08-19T08:10:22;97916.47;;;19.37;85.93
49949;BME280;35840;45.982;8.890;2022-08-19T08:12:50;97913.38;;;19.34;85.86
49949;BME280;35840;45.982;8.890;2022-08-19T08:15:38;97932.78;;;19.39;86.16
49949;BME280;35840;45.982;8.890;2022-08-19T08:18:11;97916.78;;;19.34;86.06
49949;BME280;35840;45.982;8.890;2022-08-19T08:20:39;97925.13;;;19.46;85.20
49949;BME280;35840;45.982;8.890;2022-08-19T08:23:06;97938.16;;;19.46;86.11
49949;BME280;35840;45.982;8.890;2022-08-19T08:25:55;97934.75;;;19.54;84.83
49949;BME280;35840;45.982;8.890;2022-08-19T08:28:23;97924.81;;;19.57;84.58
49949;BME280;35840;45.982;8.890;2022-08-19T08:30:51;97924.53;;;19.60;82.50
49949;BME280;35840;45.982;8.890;2022-08-19T08:33:21;97911.47;;;19.60;84.95
49949;BME280;35840;45.982;8.890;2022-08-19T08:36:09;97911.31;;;19.62;86.09
49949;BME280;35840;45.982;8.890;2022-08-19T08:38:37;97920.75;;;19.71;87.12
49949;BME280;35840;45.982;8.890;2022-08-19T08:43:55;97937.72;;;19.75;86.22
49949;BME280;35840;45.982;8.890;2022-08-19T08:46:46;97941.81;;;19.78;86.99
49949;BME280;35840;45.982;8.890;2022-08-19T08:51:58;97949.50;;;19.88;86.12
49949;BME280;35840;45.982;8.890;2022-08-19T08:54:34;97944.59;;;19.93;85.23
49949;BME280;35840;45.982;8.890;2022-08-19T08:57:04;97946.41;;;19.92;83.45
49949;BME280;35840;45.982;8.890;2022-08-19T08:59:36;97946.25;;;19.94;84.01
49949;BME280;35840;45.982;8.890;2022-08-19T09:02:04;97953.72;;;19.97;85.88
49949;BME280;35840;45.982;8.890;2022-08-19T09:04:31;97963.72;;;20.02;85.71
49949;BME280;35840;45.982;8.890;2022-08-19T09:10:10;97981.66;;;20.05;84.82
49949;BME280;35840;45.982;8.890;2022-08-19T09:15:29;97975.13;;;20.09;85.67
49949;BME280;35840;45.982;8.890;2022-08-19T09:18:03;97978.22;;;20.12;84.12
49949;BME280;35840;45.982;8.890;2022-08-19T09:20:33;97970.22;;;20.14;83.32
49949;BME280;35840;45.982;8.890;2022-08-19T09:23:00;97968.59;;;20.13;83.39
49949;BME280;35840;45.982;8.890;2022-08-19T09:25:27;97966.78;;;20.13;83.47
49949;BME280;35840;45.982;8.890;2022-08-19T09:27:55;97975.59;;;20.12;82.42
49949;BME280;35840;45.982;8.890;2022-08-19T09:30:40;97969.41;;;20.13;81.87
49949;BME280;35840;45.982;8.890;2022-08-19T09:33:07;97968.44;;;20.15;81.92
49949;BME280;35840;45.982;8.890;2022-08-19T09:35:33;97972.00;;;20.13;82.00
49949;BME280;35840;45.982;8.890;2022-08-19T09:38:20;97968.44;;;20.15;82.78
49949;BME280;35840;45.982;8.890;2022-08-19T09:40:48;97962.03;;;20.17;85.10
49949;BME280;35840;45.982;8.890;2022-08-19T09:43:16;97961.91;;;20.19;85.21
49949;BME280;35840;45.982;8.890;2022-08-19T09:46:00;97962.56;;;20.21;84.81
49949;BME280;35840;45.982;8.890;2022-08-19T09:48:27;97966.13;;;20.20;83.73
49949;BME280;35840;45.982;8.890;2022-08-19T09:50:54;97968.09;;;20.18;83.34
49949;BME280;35840;45.982;8.890;2022-08-19T09:53:20;97965.97;;;20.21;84.86
49949;BME280;35840;45.982;8.890;2022-08-19T09:55:51;97962.38;;;20.14;84.86
49949;BME280;35840;45.982;8.890;2022-08-19T09:58:18;97964.69;;;20.09;85.04
49949;BME280;35840;45.982;8.890;2022-08-19T10:00:51;97967.94;;;20.11;84.50
49949;BME280;35840;45.982;8.890;2022-08-19T10:03:19;97952.09;;;20.12;84.47
49949;BME280;35840;45.982;8.890;2022-08-19T10:05:45;97970.72;;;20.18;86.68
49949;BME280;35840;45.982;8.890;2022-08-19T10:08:21;97965.16;;;20.12;85.87
49949;BME280;35840;45.982;8.890;2022-08-19T10:10:53;97964.03;;;20.15;83.68
49949;BME280;35840;45.982;8.890;2022-08-19T10:13:24;97973.31;;;20.18;84.34
49949;BME280;35840;45.982;8.890;2022-08-19T10:15:54;97971.34;;;20.20;87.21
49949;BME280;35840;45.982;8.890;2022-08-19T10:18:24;97968.44;;;20.15;87.20
49949;BME280;35840;45.982;8.890;2022-08-19T10:20:52;97972.81;;;20.14;87.12
49949;BME280;35840;45.982;8.890;2022-08-19T10:23:20;97969.56;;;20.12;88.19
49949;BME280;35840;45.982;8.890;2022-08-19T10:25:48;97965.00;;;20.14;88.02
49949;BME280;35840;45.982;8.890;2022-08-19T10:28:16;97960.44;;;20.16;90.08
49949;BME280;35840;45.982;8.890;2022-08-19T10:30:45;97957.81;;;20.16;89.33
49949;BME280;35840;45.982;8.890;2022-08-19T10:33:12;97956.19;;;20.15;88.60
49949;BME280;35840;45.982;8.890;2022-08-19T10:35:40;97950.81;;;20.08;87.34
49949;BME280;35840;45.982;8.890;2022-08-19T10:38:23;97942.63;;;20.11;86.72
49949;BME280;35840;45.982;8.890;2022-08-19T10:40:58;97948.69;;;20.12;87.04
49949;BME280;35840;45.982;8.890;2022-08-19T10:43:25;97961.41;;;20.15;86.72
49949;BME280;35840;45.982;8.890;2022-08-19T10:45:55;97959.59;;;20.16;87.17
49949;BME280;35840;45.982;8.890;2022-08-19T10:48:23;97947.06;;;20.11;87.21
49949;BME280;35840;45.982;8.890;2022-08-19T10:50:50;97951.13;;;20.13;88.87
49949;BME280;35840;45.982;8.890;2022-08-19T10:53:49;97956.03;;;20.17;87.17
49949;BME280;35840;45.982;8.890;2022-08-19T10:56:17;97944.94;;;20.15;88.61
49949;BME280;35840;45.982;8.890;2022-08-19T10:59:04;97944.91;;;20.23;88.83
49949;BME280;35840;45.982;8.890;2022-08-19T11:01:32;97946.38;;;20.25;88.15
49949;BME280;35840;45.982;8.890;2022-08-19T11:04:02;97947.38;;;20.24;87.78
49949;BME280;35840;45.982;8.890;2022-08-19T11:06:31;97948.66;;;20.28;88.19
49949;BME280;35840;45.982;8.890;2022-08-19T11:08:58;97958.47;;;20.35;85.46
49949;BME280;35840;45.982;8.890;2022-08-19T11:11:26;97952.56;;;20.41;85.27
49949;BME280;35840;45.982;8.890;2022-08-19T11:13:54;97958.94;;;20.38;81.73
49949;BME280;35840;45.982;8.890;2022-08-19T11:16:23;97957.16;;;20.39;82.62
49949;BME280;35840;45.982;8.890;2022-08-19T11:18:54;97948.00;;;20.43;80.34
49949;BME280;35840;45.982;8.890;2022-08-19T11:21:33;97945.22;;;20.44;80.86
49949;BME280;35840;45.982;8.890;2022-08-19T11:24:04;97938.53;;;20.50;80.05
49949;BME280;35840;45.982;8.890;2022-08-19T11:26:33;97946.50;;;20.57;79.93
49949;BME280;35840;45.982;8.890;2022-08-19T11:29:00;97960.38;;;20.57;79.76
49949;BME280;35840;45.982;8.890;2022-08-19T11:31:30;97955.31;;;20.64;80.62
49949;BME280;35840;45.982;8.890;2022-08-19T11:33:59;97945.84;;;20.63;81.78
49949;BME280;35840;45.982;8.890;2022-08-19T11:36:28;97948.63;;;20.61;85.71
49949;BME280;35840;45.982;8.890;2022-08-19T11:38:55;97951.41;;;20.60;82.42
49949;BME280;35840;45.982;8.890;2022-08-19T11:41:23;97957.78;;;20.57;80.91
49949;BME280;35840;45.982;8.890;2022-08-19T11:43:51;97951.41;;;20.60;81.21
49949;BME280;35840;45.982;8.890;2022-08-19T11:46:19;97947.47;;;20.64;83.20
49949;BME280;35840;45.982;8.890;2022-08-19T11:48:46;97943.06;;;20.64;84.30
49949;BME280;35840;45.982;8.890;2022-08-19T11:51:16;97945.00;;;20.62;82.71
49949;BME280;35840;45.982;8.890;2022-08-19T11:53:45;97952.41;;;20.67;82.06
49949;BME280;35840;45.982;8.890;2022-08-19T11:56:12;97950.91;;;20.73;83.34
49949;BME280;35840;45.982;8.890;2022-08-19T11:58:39;97937.84;;;20.73;86.28
49949;BME280;35840;45.982;8.890;2022-08-19T12:01:09;97937.66;;;20.66;81.86
49949;BME280;35840;45.982;8.890;2022-08-19T12:03:38;97938.63;;;20.65;82.06
49949;BME280;35840;45.982;8.890;2022-08-19T12:06:10;97931.00;;;20.55;77.20
49949;BME280;35840;45.982;8.890;2022-08-19T12:08:40;97927.56;;;20.55;75.26
49949;BME280;35840;45.982;8.890;2022-08-19T12:11:06;97936.88;;;20.57;72.45
49949;BME280;35840;45.982;8.890;2022-08-19T12:13:34;97927.56;;;20.55;76.07
49949;BME280;35840;45.982;8.890;2022-08-19T12:16:07;97926.78;;;20.54;77.64
49949;BME280;35840;45.982;8.890;2022-08-19T12:18:35;97916.16;;;20.47;69.70
49949;BME280;35840;45.982;8.890;2022-08-19T12:21:02;97911.09;;;20.54;69.20
49949;BME280;35840;45.982;8.890;2022-08-19T12:23:29;97910.59;;;20.59;69.51
49949;BME280;35840;45.982;8.890;2022-08-19T12:25:57;97891.53;;;20.42;67.76
49949;BME280;35840;45.982;8.890;2022-08-19T12:28:24;97896.41;;;20.53;69.10
49949;BME280;35840;45.982;8.890;2022-08-19T12:30:51;97895.59;;;20.53;70.63
49949;BME280;35840;45.982;8.890;2022-08-19T12:33:19;97890.34;;;20.61;77.76
49949;BME280;35840;45.982;8.890;2022-08-19T12:35:51;97876.13;;;20.63;81.29
49949;BME280;35840;45.982;8.890;2022-08-19T12:38:18;97886.06;;;20.76;86.21
49949;BME280;35840;45.982;8.890;2022-08-19T12:40:46;97877.09;;;20.71;84.81
49949;BME280;35840;45.982;8.890;2022-08-19T12:43:14;97884.75;;;20.80;80.06
49949;BME280;35840;45.982;8.890;2022-08-19T12:45:42;97874.59;;;20.86;81.10
49949;BME280;35840;45.982;8.890;2022-08-19T12:48:09;97881.41;;;20.95;84.62
49949;BME280;35840;45.982;8.890;2022-08-19T12:50:56;97867.00;;;20.99;83.17
49949;BME280;35840;45.982;8.890;2022-08-19T12:53:23;97879.06;;;21.08;82.29
49949;BME280;35840;45.982;8.890;2022-08-19T12:55:57;97872.69;;;21.11;80.00
49949;BME280;35840;45.982;8.890;2022-08-19T12:58:24;97868.50;;;21.25;81.58
49949;BME280;35840;45.982;8.890;2022-08-19T13:00:53;97866.81;;;21.32;78.51
49949;BME280;35840;45.982;8.890;2022-08-19T13:03:20;97868.94;;;21.37;78.86
49949;BME280;35840;45.982;8.890;2022-08-19T13:05:50;97874.59;;;21.40;76.54
49949;BME280;35840;45.982;8.890;2022-08-19T13:08:17;97871.13;;;21.48;76.38
49949;BME280;35840;45.982;8.890;2022-08-19T13:10:44;97870.13;;;21.49;75.06
49949;BME280;35840;45.982;8.890;2022-08-19T13:13:10;97857.69;;;21.59;76.33
49949;BME280;35840;45.982;8.890;2022-08-19T13:15:40;97857.69;;;21.59;75.96
49949;BME280;35840;45.982;8.890;2022-08-19T13:18:08;97856.03;;;21.58;75.48
49949;BME280;35840;45.982;8.890;2022-08-19T13:20:37;97853.97;;;21.54;76.17
49949;BME280;35840;45.982;8.890;2022-08-19T13:23:04;97855.09;;;21.51;74.90
49949;BME280;35840;45.982;8.890;2022-08-19T13:25:31;97847.41;;;21.58;76.94
49949;BME280;35840;45.982;8.890;2022-08-19T13:27:59;97841.06;;;21.52;74.68